createdAt,value
2018-12-24T00:00:37.701Z,99583.22
2018-12-24T00:01:13.679Z,99580.63
2018-12-24T00:01:49.933Z,99571.21
2018-12-24T00:02:25.871Z,99571.21
2018-12-24T00:03:02.001Z,99584.56
2018-12-24T00:03:38.217Z,99575.83
2018-12-24T00:04:14.082Z,99576.16
2018-12-24T00:04:50.258Z,99581.42
2018-12-24T00:05:26.225Z,99609.95
2018-12-24T00:06:02.092Z,99622.28
2018-12-24T00:06:37.987Z,99653.48
2018-12-24T00:07:13.850Z,99653.48
2018-12-24T00:07:49.869Z,99666.45
2018-12-24T00:08:25.738Z,99671.34
2018-12-24T00:09:01.596Z,99672.27
2018-12-24T00:09:37.443Z,99687.15
2018-12-24T00:10:13.298Z,99695.98
2018-12-24T00:10:49.285Z,99690.20
2018-12-24T00:11:25.230Z,99708.80
2018-12-24T00:12:07.022Z,99717.41
2018-12-24T00:12:38.914Z,99714.70
2018-12-24T00:13:14.771Z,99709.59
2018-12-24T00:13:50.944Z,99713.27
2018-12-24T00:14:26.849Z,99732.89
2018-12-24T00:15:02.701Z,99731.83
2018-12-24T00:15:38.912Z,99713.23
2018-12-24T00:16:14.752Z,99751.23
2018-12-24T00:16:51.306Z,99720.30
2018-12-24T00:17:27.533Z,99723.12
2018-12-24T00:18:03.650Z,99727.75
2018-12-24T00:18:39.759Z,99722.25
2018-12-24T00:19:15.611Z,99728.64
2018-12-24T00:19:51.843Z,99728.70
2018-12-24T00:20:27.707Z,99724.14
2018-12-24T00:21:03.831Z,99727.70
2018-12-24T00:21:39.694Z,99719.91
2018-12-24T00:22:15.656Z,99743.00
2018-12-24T00:22:51.732Z,99741.38
2018-12-24T00:23:27.679Z,99753.55
2018-12-24T00:24:03.834Z,99749.44
2018-12-24T00:24:39.713Z,99756.36
2018-12-24T00:25:15.542Z,99757.78
2018-12-24T00:25:51.720Z,99765.22
2018-12-24T00:26:28.381Z,99771.39
2018-12-24T00:27:04.499Z,99770.61
2018-12-24T00:27:40.626Z,99769.83
2018-12-24T00:28:16.481Z,99778.20
2018-12-24T00:28:52.487Z,99779.17
2018-12-24T00:29:28.349Z,99766.45
2018-12-24T00:30:04.190Z,99761.02
2018-12-24T00:30:40.283Z,99768.38
2018-12-24T00:31:16.164Z,99762.82
2018-12-24T00:31:52.095Z,99765.89
2018-12-24T00:32:27.974Z,99766.07
2018-12-24T00:33:03.834Z,99752.06
2018-12-24T00:33:39.682Z,99773.59
2018-12-24T00:34:15.626Z,99776.58
2018-12-24T00:34:51.781Z,99778.44
2018-12-24T00:35:27.605Z,99780.24
2018-12-24T00:36:04.051Z,99782.59
2018-12-24T00:36:39.902Z,99786.14
2018-12-24T00:37:15.742Z,99783.22
2018-12-24T00:37:51.985Z,99793.56
2018-12-24T00:38:27.920Z,99805.41
2018-12-24T00:39:04.697Z,99799.84
2018-12-24T00:39:40.638Z,99812.77
2018-12-24T00:40:16.829Z,99811.95
2018-12-24T00:40:52.751Z,99805.27
2018-12-24T00:41:28.671Z,99827.95
2018-12-24T00:42:04.522Z,99819.78
2018-12-24T00:42:40.978Z,99820.16
2018-12-24T00:43:16.819Z,99811.39
2018-12-24T00:43:53.233Z,99818.55
2018-12-24T00:44:29.059Z,99818.55
2018-12-24T00:45:04.900Z,99827.30
2018-12-24T00:45:40.841Z,99820.30
2018-12-24T00:46:16.737Z,99835.81
2018-12-24T00:46:53.263Z,99822.34
2018-12-24T00:47:29.119Z,99836.08
2018-12-24T00:48:05.027Z,99833.73
2018-12-24T00:48:40.848Z,99842.77
2018-12-24T00:49:17.015Z,99833.73
2018-12-24T00:49:53.037Z,99834.58
2018-12-24T00:50:28.904Z,99835.02
2018-12-24T00:51:05.184Z,99844.59
2018-12-24T00:51:41.283Z,99847.17
2018-12-24T00:52:17.120Z,99832.05
2018-12-24T00:52:53.115Z,99839.84
2018-12-24T00:53:28.970Z,99845.05
2018-12-24T00:54:04.913Z,99845.00
2018-12-24T00:54:40.785Z,99850.20
2018-12-24T00:55:18.010Z,99850.16
2018-12-24T00:55:54.063Z,99841.28
2018-12-24T00:56:29.912Z,99848.87
2018-12-24T00:57:06.013Z,99863.02
2018-12-24T00:57:42.148Z,99867.51
2018-12-24T00:58:18.127Z,99872.88
2018-12-24T00:58:54.189Z,99872.88
2018-12-24T00:59:30.066Z,99877.33
2018-12-24T01:00:06.228Z,99876.48
2018-12-24T01:00:42.412Z,99876.22
2018-12-24T01:01:18.258Z,99885.65
2018-12-24T01:01:54.270Z,99885.65
2018-12-24T01:02:30.218Z,99888.84
2018-12-24T01:03:06.089Z,99891.64
2018-12-24T01:03:42.189Z,99893.37
2018-12-24T01:04:18.197Z,99890.92
2018-12-24T01:04:54.177Z,99893.31
2018-12-24T01:05:30.015Z,99900.56
2018-12-24T01:06:05.849Z,99896.64
2018-12-24T01:06:41.715Z,99905.67
2018-12-24T01:07:17.726Z,99908.20
2018-12-24T01:07:54.065Z,99907.48
2018-12-24T01:08:30.631Z,99910.59
2018-12-24T01:09:07.406Z,99910.59
2018-12-24T01:09:43.255Z,99915.47
2018-12-24T01:10:19.189Z,99915.47
2018-12-24T01:10:55.265Z,99924.16
2018-12-24T01:11:31.080Z,99924.16
2018-12-24T01:12:06.937Z,99924.05
2018-12-24T01:12:43.013Z,99921.67
2018-12-24T01:13:19.599Z,99921.67
2018-12-24T01:13:55.887Z,99925.74
2018-12-24T01:14:31.986Z,99931.63
2018-12-24T01:15:07.821Z,99934.20
2018-12-24T01:15:43.995Z,99932.02
2018-12-24T01:16:20.101Z,99939.71
2018-12-24T01:16:56.178Z,99941.20
2018-12-24T01:17:32.031Z,99941.20
2018-12-24T01:18:08.252Z,99955.26
2018-12-24T01:18:44.097Z,99957.47
2018-12-24T01:19:20.325Z,99946.52
2018-12-24T01:19:56.911Z,99946.52
2018-12-24T01:20:33.875Z,99952.75
2018-12-24T01:21:09.779Z,99951.02
2018-12-24T01:21:45.714Z,99962.17
2018-12-24T01:22:21.615Z,99967.90
2018-12-24T01:22:57.586Z,99962.06
2018-12-24T01:23:33.558Z,99962.06
2018-12-24T01:24:09.401Z,99970.19
2018-12-24T01:24:45.233Z,99974.46
2018-12-24T01:25:21.374Z,99964.63
2018-12-24T01:25:57.228Z,99973.21
2018-12-24T01:26:33.078Z,99973.21
2018-12-24T01:27:09.033Z,99974.05
2018-12-24T01:27:44.969Z,99974.05
2018-12-24T01:28:21.268Z,99972.97
2018-12-24T01:28:57.164Z,99972.97
2018-12-24T01:29:33.006Z,99978.13
2018-12-24T01:30:09.109Z,99983.52
2018-12-24T01:30:44.945Z,99983.52
2018-12-24T01:31:20.912Z,99998.17
2018-12-24T01:31:56.869Z,99998.17
2018-12-24T01:32:32.979Z,100002.16
2018-12-24T01:33:08.807Z,99999.23
2018-12-24T01:33:44.931Z,100004.53
2018-12-24T01:34:20.861Z,100004.53
2018-12-24T01:34:57.127Z,100013.19
2018-12-24T01:35:32.983Z,100019.55
2018-12-24T01:36:08.834Z,100023.89
2018-12-24T01:36:44.673Z,100023.89
2018-12-24T01:37:21.129Z,100030.30
2018-12-24T01:37:57.111Z,100036.33
2018-12-24T01:38:32.988Z,100031.25
2018-12-24T01:39:09.094Z,100041.92
2018-12-24T01:39:44.957Z,100038.54
2018-12-24T01:40:20.849Z,100038.54
2018-12-24T01:40:56.948Z,100040.34
2018-12-24T01:41:33.033Z,100046.16
2018-12-24T01:42:08.996Z,100041.12
2018-12-24T01:42:45.100Z,100048.92
2018-12-24T01:43:21.062Z,100048.52
2018-12-24T01:43:57.010Z,100048.55
2018-12-24T01:44:33.099Z,100048.55
2018-12-24T01:45:08.961Z,100050.94
2018-12-24T01:45:44.785Z,100059.66
2018-12-24T01:46:20.702Z,100061.80
2018-12-24T01:46:56.707Z,100061.80
2018-12-24T01:47:32.667Z,100072.69
2018-12-24T01:48:08.650Z,100072.69
2018-12-24T01:48:45.088Z,100069.97
2018-12-24T01:49:21.131Z,100067.87
2018-12-24T01:49:57.688Z,100081.64
2018-12-24T01:50:33.656Z,100077.73
2018-12-24T01:51:09.531Z,100077.73
2018-12-24T01:51:46.021Z,100087.27
2018-12-24T01:52:22.373Z,100085.50
2018-12-24T01:52:58.388Z,100081.67
2018-12-24T01:53:34.234Z,100083.44
2018-12-24T01:54:10.235Z,100087.01
2018-12-24T01:54:46.127Z,100089.14
2018-12-24T01:55:21.993Z,100089.14
2018-12-24T01:55:57.910Z,100098.56
2018-12-24T01:56:34.084Z,100093.38
2018-12-24T01:57:09.931Z,100091.68
2018-12-24T01:57:45.790Z,100089.44
2018-12-24T01:58:21.668Z,100099.41
2018-12-24T01:58:57.647Z,100098.56
2018-12-24T01:59:33.516Z,100107.58
2018-12-24T02:00:09.720Z,100108.69
2018-12-24T02:00:45.888Z,100110.22
2018-12-24T02:01:21.801Z,100110.22
2018-12-24T02:01:57.993Z,100120.05
2018-12-24T02:02:33.830Z,100113.68
2018-12-24T02:03:09.707Z,100113.68
2018-12-24T02:03:45.561Z,100115.37
2018-12-24T02:04:21.465Z,100116.19
2018-12-24T02:04:57.610Z,100111.11
2018-12-24T02:05:33.466Z,100115.01
2018-12-24T02:06:09.310Z,100115.48
2018-12-24T02:06:45.158Z,100115.48
2018-12-24T02:07:21.515Z,100112.50
2018-12-24T02:07:57.399Z,100116.80
2018-12-24T02:08:33.240Z,100116.80
2018-12-24T02:09:09.159Z,100113.02
2018-12-24T02:09:45.306Z,100130.53
2018-12-24T02:10:21.379Z,100126.70
2018-12-24T02:10:57.337Z,100131.89
2018-12-24T02:11:33.439Z,100125.89
2018-12-24T02:12:09.572Z,100132.70
2018-12-24T02:12:45.428Z,100132.70
2018-12-24T02:13:21.710Z,100126.88
2018-12-24T02:13:58.053Z,100141.30
2018-12-24T02:14:33.891Z,100144.73
2018-12-24T02:15:10.055Z,100133.24
2018-12-24T02:15:45.996Z,100133.24
2018-12-24T02:16:21.898Z,100145.20
2018-12-24T02:16:58.011Z,100138.09
2018-12-24T02:17:33.842Z,100146.90
2018-12-24T02:18:09.701Z,100146.63
2018-12-24T02:18:45.824Z,100147.14
2018-12-24T02:19:21.754Z,100147.14
2018-12-24T02:19:57.629Z,100147.41
2018-12-24T02:20:33.559Z,100146.90
2018-12-24T02:21:09.401Z,100146.90
2018-12-24T02:21:45.505Z,100148.19
2018-12-24T02:22:21.436Z,100151.06
2018-12-24T02:22:57.318Z,100151.61
2018-12-24T02:23:33.167Z,100151.61
2018-12-24T02:24:09.030Z,100149.00
2018-12-24T02:24:44.872Z,100149.84
2018-12-24T02:25:20.791Z,100153.10
2018-12-24T02:25:56.661Z,100156.92
2018-12-24T02:26:32.521Z,100162.55
2018-12-24T02:27:08.374Z,100153.41
2018-12-24T02:27:44.256Z,100153.41
2018-12-24T02:28:20.159Z,100168.72
2018-12-24T02:28:56.517Z,100166.34
2018-12-24T02:29:32.383Z,100173.32
2018-12-24T02:30:08.235Z,100173.32
2018-12-24T02:30:44.088Z,100167.73
2018-12-24T02:31:20.012Z,100170.30
2018-12-24T02:31:55.977Z,100177.81
2018-12-24T02:32:31.854Z,100177.81
2018-12-24T02:33:07.706Z,100185.63
2018-12-24T02:33:43.646Z,100179.67
2018-12-24T02:34:19.584Z,100190.81
2018-12-24T02:34:55.792Z,100187.83
2018-12-24T02:35:31.617Z,100180.23
2018-12-24T02:36:07.462Z,100176.56
2018-12-24T02:36:43.591Z,100174.11
2018-12-24T02:37:19.680Z,100183.63
2018-12-24T02:37:55.567Z,100189.61
2018-12-24T02:38:31.404Z,100191.34
2018-12-24T02:39:08.136Z,100190.58
2018-12-24T02:39:43.989Z,100192.69
2018-12-24T02:40:20.068Z,100188.45
2018-12-24T02:40:55.975Z,100186.31
2018-12-24T02:41:31.816Z,100193.22
2018-12-24T02:42:07.711Z,100192.45
2018-12-24T02:42:52.081Z,100181.41
2018-12-24T02:43:21.250Z,100191.30
2018-12-24T02:43:57.205Z,100193.78
2018-12-24T02:44:33.337Z,100193.84
2018-12-24T02:45:09.183Z,100201.20
2018-12-24T02:45:45.026Z,100200.00
2018-12-24T02:46:20.901Z,100203.95
2018-12-24T02:46:56.777Z,100212.08
2018-12-24T02:47:32.618Z,100211.75
2018-12-24T02:48:08.559Z,100213.83
2018-12-24T02:48:44.492Z,100219.38
2018-12-24T02:49:20.678Z,100222.74
2018-12-24T02:49:56.618Z,100224.11
2018-12-24T02:50:32.480Z,100236.53
2018-12-24T02:51:08.327Z,100234.64
2018-12-24T02:51:44.271Z,100243.84
2018-12-24T02:52:20.112Z,100242.64
2018-12-24T02:52:56.439Z,100242.14
2018-12-24T02:53:32.708Z,100243.57
2018-12-24T02:54:09.142Z,100240.56
2018-12-24T02:54:45.278Z,100249.09
2018-12-24T02:55:21.105Z,100248.25
2018-12-24T02:55:57.072Z,100254.27
2018-12-24T02:56:32.970Z,100257.30
2018-12-24T02:57:08.805Z,100257.30
2018-12-24T02:57:44.641Z,100256.08
2018-12-24T02:58:20.486Z,100265.10
2018-12-24T02:58:56.416Z,100265.53
2018-12-24T02:59:32.362Z,100265.95
2018-12-24T03:00:08.219Z,100271.09
2018-12-24T03:00:44.060Z,100273.23
2018-12-24T03:01:20.634Z,100272.02
2018-12-24T03:01:56.642Z,100274.27
2018-12-24T03:02:32.779Z,100280.55
2018-12-24T03:03:08.646Z,100270.70
2018-12-24T03:03:45.068Z,100274.59
2018-12-24T03:04:20.918Z,100271.72
2018-12-24T03:04:56.840Z,100283.17
2018-12-24T03:05:33.134Z,100279.84
2018-12-24T03:06:08.964Z,100273.02
2018-12-24T03:06:44.834Z,100281.20
2018-12-24T03:07:20.681Z,100283.70
2018-12-24T03:07:56.872Z,100285.47
2018-12-24T03:08:32.735Z,100289.81
2018-12-24T03:09:08.602Z,100288.66
2018-12-24T03:09:44.503Z,100294.59
2018-12-24T03:10:20.625Z,100290.78
2018-12-24T03:10:56.602Z,100291.28
2018-12-24T03:11:32.468Z,100288.66
2018-12-24T03:12:08.320Z,100291.28
2018-12-24T03:12:44.160Z,100292.66
2018-12-24T03:13:20.106Z,100300.45
2018-12-24T03:13:55.999Z,100285.44
2018-12-24T03:14:31.870Z,100297.47
2018-12-24T03:15:07.739Z,100288.52
2018-12-24T03:15:43.844Z,100294.09
2018-12-24T03:16:19.686Z,100299.20
2018-12-24T03:16:55.529Z,100297.03
2018-12-24T03:17:31.391Z,100302.61
2018-12-24T03:18:07.259Z,100307.31
2018-12-24T03:18:43.201Z,100306.48
2018-12-24T03:19:19.123Z,100307.77
2018-12-24T03:19:55.016Z,100313.73
2018-12-24T03:20:30.878Z,100308.49
2018-12-24T03:21:06.901Z,100324.34
2018-12-24T03:21:42.745Z,100323.58
2018-12-24T03:22:18.605Z,100325.64
2018-12-24T03:22:54.736Z,100323.16
2018-12-24T03:23:30.909Z,100330.34
2018-12-24T03:24:06.765Z,100328.59
2018-12-24T03:24:42.718Z,100327.31
2018-12-24T03:25:18.819Z,100329.03
2018-12-24T03:25:54.953Z,100330.40
2018-12-24T03:26:30.851Z,100333.34
2018-12-24T03:27:06.797Z,100333.76
2018-12-24T03:27:42.935Z,100341.42
2018-12-24T03:28:18.773Z,100336.28
2018-12-24T03:28:54.891Z,100330.85
2018-12-24T03:29:30.768Z,100333.45
2018-12-24T03:30:06.677Z,100338.47
2018-12-24T03:30:42.520Z,100342.40
2018-12-24T03:31:18.374Z,100336.55
2018-12-24T03:31:54.242Z,100340.84
2018-12-24T03:32:30.142Z,100336.16
2018-12-24T03:33:06.002Z,100346.39
2018-12-24T03:33:41.884Z,100347.68
2018-12-24T03:34:17.720Z,100349.44
2018-12-24T03:34:53.600Z,100355.83
2018-12-24T03:35:29.803Z,100355.04
2018-12-24T03:36:06.281Z,100353.41
2018-12-24T03:36:42.118Z,100365.87
2018-12-24T03:37:17.987Z,100365.87
2018-12-24T03:37:54.115Z,100372.74
2018-12-24T03:38:30.307Z,100369.37
2018-12-24T03:39:07.830Z,100374.95
2018-12-24T03:39:43.692Z,100380.94
2018-12-24T03:40:19.853Z,100381.38
2018-12-24T03:40:56.288Z,100385.23
2018-12-24T03:41:32.302Z,100389.86
2018-12-24T03:42:08.219Z,100392.09
2018-12-24T03:42:44.068Z,100393.48
2018-12-24T03:43:19.901Z,100388.38
2018-12-24T03:43:55.758Z,100385.38
2018-12-24T03:44:31.725Z,100385.41
2018-12-24T03:45:07.956Z,100388.81
2018-12-24T03:45:43.840Z,100384.48
2018-12-24T03:46:19.696Z,100375.55
2018-12-24T03:46:55.567Z,100385.77
2018-12-24T03:47:31.559Z,100394.77
2018-12-24T03:48:07.445Z,100390.84
2018-12-24T03:48:43.543Z,100388.78
2018-12-24T03:49:19.732Z,100395.26
2018-12-24T03:49:55.866Z,100395.12
2018-12-24T03:50:32.113Z,100395.12
2018-12-24T03:51:08.052Z,100400.34
2018-12-24T03:51:43.929Z,100408.89
2018-12-24T03:52:20.052Z,100407.64
2018-12-24T03:52:56.055Z,100413.23
2018-12-24T03:53:32.274Z,100417.50
2018-12-24T03:54:08.504Z,100409.38
2018-12-24T03:54:44.604Z,100413.22
2018-12-24T03:55:20.755Z,100411.53
2018-12-24T03:55:56.734Z,100416.29
2018-12-24T03:56:32.620Z,100411.20
2018-12-24T03:57:08.578Z,100411.73
2018-12-24T03:57:44.422Z,100419.31
2018-12-24T03:58:20.630Z,100424.45
2018-12-24T03:58:56.722Z,100417.61
2018-12-24T03:59:32.851Z,100418.03
2018-12-24T04:00:09.118Z,100418.89
2018-12-24T04:00:45.003Z,100427.84
2018-12-24T04:01:21.100Z,100420.48
2018-12-24T04:01:56.986Z,100421.23
2018-12-24T04:02:33.006Z,100413.53
2018-12-24T04:03:08.868Z,100419.66
2018-12-24T04:03:44.745Z,100421.42
2018-12-24T04:04:20.879Z,100426.56
2018-12-24T04:04:57.060Z,100418.05
2018-12-24T04:05:33.385Z,100427.86
2018-12-24T04:06:09.211Z,100433.85
2018-12-24T04:06:45.464Z,100435.05
2018-12-24T04:07:21.377Z,100439.79
2018-12-24T04:07:57.508Z,100439.86
2018-12-24T04:08:33.647Z,100445.02
2018-12-24T04:09:09.826Z,100439.47
2018-12-24T04:09:46.293Z,100438.27
2018-12-24T04:10:22.182Z,100442.56
2018-12-24T04:10:58.354Z,100447.73
2018-12-24T04:11:34.489Z,100444.80
2018-12-24T04:12:10.583Z,100449.50
2018-12-24T04:12:46.423Z,100443.11
2018-12-24T04:13:22.971Z,100446.93
2018-12-24T04:13:59.021Z,100446.45
2018-12-24T04:14:35.029Z,100449.52
2018-12-24T04:15:10.969Z,100446.95
2018-12-24T04:15:46.957Z,100444.84
2018-12-24T04:16:23.145Z,100444.42
2018-12-24T04:16:59.062Z,100457.25
2018-12-24T04:17:34.961Z,100452.17
2018-12-24T04:18:10.805Z,100448.33
2018-12-24T04:18:47.063Z,100449.61
2018-12-24T04:19:22.984Z,100456.89
2018-12-24T04:19:58.890Z,100460.73
2018-12-24T04:20:34.802Z,100465.05
2018-12-24T04:21:10.928Z,100459.57
2018-12-24T04:21:46.794Z,100462.08
2018-12-24T04:22:22.646Z,100464.22
2018-12-24T04:22:58.919Z,100465.57
2018-12-24T04:23:34.837Z,100467.29
2018-12-24T04:24:10.705Z,100465.97
2018-12-24T04:24:46.529Z,100461.70
2018-12-24T04:25:22.383Z,100469.85
2018-12-24T04:25:58.920Z,100476.70
2018-12-24T04:26:34.824Z,100468.61
2018-12-24T04:27:11.183Z,100472.92
2018-12-24T04:27:47.303Z,100472.11
2018-12-24T04:28:23.413Z,100473.83
2018-12-24T04:28:59.631Z,100479.39
2018-12-24T04:29:35.520Z,100475.95
2018-12-24T04:30:11.366Z,100479.80
2018-12-24T04:30:47.265Z,100481.94
2018-12-24T04:31:23.167Z,100483.22
2018-12-24T04:31:59.090Z,100483.25
2018-12-24T04:32:35.033Z,100483.64
2018-12-24T04:33:11.216Z,100489.22
2018-12-24T04:33:47.056Z,100491.80
2018-12-24T04:34:22.895Z,100493.94
2018-12-24T04:34:58.797Z,100496.89
2018-12-24T04:35:35.094Z,100494.36
2018-12-24T04:36:10.931Z,100498.70
2018-12-24T04:36:47.086Z,100496.98
2018-12-24T04:37:22.897Z,100496.20
2018-12-24T04:37:58.791Z,100508.47
2018-12-24T04:38:34.662Z,100508.45
2018-12-24T04:39:10.503Z,100506.34
2018-12-24T04:39:46.372Z,100510.61
2018-12-24T04:40:22.207Z,100511.54
2018-12-24T04:40:58.119Z,100510.27
2018-12-24T04:41:34.032Z,100514.55
2018-12-24T04:42:09.868Z,100511.62
2018-12-24T04:42:45.705Z,100513.77
2018-12-24T04:43:21.573Z,100512.08
2018-12-24T04:43:59.113Z,100515.49
2018-12-24T04:44:35.248Z,100524.88
2018-12-24T04:45:11.191Z,100528.73
2018-12-24T04:45:47.054Z,100525.77
2018-12-24T04:46:22.919Z,100525.75
2018-12-24T04:46:59.161Z,100526.66
2018-12-24T04:47:35.029Z,100532.66
2018-12-24T04:48:11.143Z,100530.91
2018-12-24T04:48:47.328Z,100529.62
2018-12-24T04:49:23.475Z,100539.01
2018-12-24T04:49:59.652Z,100537.78
2018-12-24T04:50:35.523Z,100538.64
2018-12-24T04:51:11.381Z,100538.21
2018-12-24T04:51:47.223Z,100541.16
2018-12-24T04:52:23.077Z,100545.92
2018-12-24T04:52:59.073Z,100547.56
2018-12-24T04:53:34.982Z,100546.77
2018-12-24T04:54:10.817Z,100553.95
2018-12-24T04:54:46.915Z,100556.03
2018-12-24T04:55:22.825Z,100555.66
2018-12-24T04:55:58.848Z,100549.23
2018-12-24T04:56:34.740Z,100561.58
2018-12-24T04:57:10.561Z,100558.17
2018-12-24T04:57:46.730Z,100567.98
2018-12-24T04:58:22.567Z,100561.99
2018-12-24T04:58:58.487Z,100558.96
2018-12-24T04:59:34.398Z,100573.50
2018-12-24T05:00:10.239Z,100570.06
2018-12-24T05:00:46.080Z,100567.52
2018-12-24T05:01:22.066Z,100573.91
2018-12-24T05:01:58.367Z,100576.89
2018-12-24T05:02:34.340Z,100573.06
2018-12-24T05:03:10.168Z,100577.77
2018-12-24T05:03:46.024Z,100583.33
2018-12-24T05:04:21.862Z,100579.91
2018-12-24T05:04:57.784Z,100590.59
2018-12-24T05:05:34.243Z,100601.72
2018-12-24T05:06:10.111Z,100601.30
2018-12-24T05:06:45.948Z,100601.30
2018-12-24T05:07:22.031Z,100602.08
2018-12-24T05:07:57.938Z,100600.43
2018-12-24T05:08:33.899Z,100605.48
2018-12-24T05:09:10.015Z,100603.77
2018-12-24T05:09:46.104Z,100611.46
2018-12-24T05:10:22.264Z,100605.47
2018-12-24T05:10:58.156Z,100612.75
2018-12-24T05:11:34.326Z,100619.16
2018-12-24T05:12:10.167Z,100612.69
2018-12-24T05:12:46.041Z,100618.26
2018-12-24T05:13:21.889Z,100621.67
2018-12-24T05:13:58.048Z,100615.22
2018-12-24T05:14:34.419Z,100625.09
2018-12-24T05:15:10.287Z,100621.24
2018-12-24T05:15:46.135Z,100626.80
2018-12-24T05:16:22.112Z,100617.75
2018-12-24T05:16:58.007Z,100626.37
2018-12-24T05:17:33.927Z,100626.81
2018-12-24T05:18:09.791Z,100629.38
2018-12-24T05:18:45.615Z,100630.67
2018-12-24T05:19:21.557Z,100624.32
2018-12-24T05:19:57.858Z,100632.88
2018-12-24T05:20:34.189Z,100635.86
2018-12-24T05:21:10.067Z,100635.04
2018-12-24T05:21:45.942Z,100634.19
2018-12-24T05:22:21.784Z,100630.81
2018-12-24T05:22:57.694Z,100638.94
2018-12-24T05:23:33.567Z,100638.08
2018-12-24T05:24:09.423Z,100636.73
2018-12-24T05:24:45.260Z,100642.30
2018-12-24T05:25:21.090Z,100640.16
2018-12-24T05:25:57.370Z,100636.76
2018-12-24T05:26:33.279Z,100641.02
2018-12-24T05:27:09.466Z,100638.94
2018-12-24T05:27:45.316Z,100642.30
2018-12-24T05:28:21.153Z,100645.29
2018-12-24T05:28:57.350Z,100640.55
2018-12-24T05:29:33.321Z,100642.65
2018-12-24T05:30:09.174Z,100647.34
2018-12-24T05:30:45.011Z,100652.48
2018-12-24T05:31:20.906Z,100656.34
2018-12-24T05:31:56.932Z,100658.05
2018-12-24T05:32:32.907Z,100656.34
2018-12-24T05:33:09.332Z,100656.76
2018-12-24T05:33:45.165Z,100657.19
2018-12-24T05:34:21.030Z,100661.45
2018-12-24T05:34:57.317Z,100660.55
2018-12-24T05:35:33.307Z,100658.48
2018-12-24T05:36:09.175Z,100663.61
2018-12-24T05:36:45.051Z,100666.61
2018-12-24T05:37:21.237Z,100666.61
2018-12-24T05:37:57.372Z,100676.41
2018-12-24T05:38:33.265Z,100673.00
2018-12-24T05:39:09.112Z,100679.42
2018-12-24T05:39:44.968Z,100675.95
2018-12-24T05:40:20.804Z,100674.28
2018-12-24T05:40:56.883Z,100684.57
2018-12-24T05:41:32.860Z,100685.34
2018-12-24T05:42:09.015Z,100685.34
2018-12-24T05:42:44.956Z,100686.64
2018-12-24T05:43:21.397Z,100692.63
2018-12-24T05:43:57.323Z,100690.06
2018-12-24T05:44:33.212Z,100693.93
2018-12-24T05:45:09.066Z,100684.50
2018-12-24T05:45:45.009Z,100690.05
2018-12-24T05:46:20.973Z,100700.31
2018-12-24T05:46:56.936Z,100698.11
2018-12-24T05:47:33.069Z,100698.54
2018-12-24T05:48:08.912Z,100710.50
2018-12-24T05:48:45.051Z,100709.59
2018-12-24T05:49:20.892Z,100710.94
2018-12-24T05:49:57.124Z,100713.08
2018-12-24T05:50:33.397Z,100700.67
2018-12-24T05:51:09.260Z,100698.55
2018-12-24T05:51:45.116Z,100709.66
2018-12-24T05:52:21.074Z,100711.37
2018-12-24T05:52:57.047Z,100714.34
2018-12-24T05:53:33.357Z,100718.28
2018-12-24T05:54:09.205Z,100722.94
2018-12-24T05:54:45.028Z,100716.95
2018-12-24T05:55:20.905Z,100714.44
2018-12-24T05:55:56.857Z,100721.66
2018-12-24T05:56:32.898Z,100727.66
2018-12-24T05:57:09.022Z,100723.77
2018-12-24T05:57:44.861Z,100728.08
2018-12-24T05:58:21.063Z,100715.73
2018-12-24T05:58:57.136Z,100725.50
2018-12-24T05:59:33.050Z,100727.27
2018-12-24T06:00:08.918Z,100735.40
2018-12-24T06:00:44.951Z,100722.95
2018-12-24T06:01:20.817Z,100734.98
2018-12-24T06:01:57.565Z,100738.42
2018-12-24T06:02:33.573Z,100734.20
2018-12-24T06:03:09.569Z,100737.58
2018-12-24T06:03:45.405Z,100735.36
2018-12-24T06:04:22.275Z,100744.84
2018-12-24T06:04:58.394Z,100745.27
2018-12-24T06:05:34.374Z,100749.62
2018-12-24T06:06:10.540Z,100747.91
2018-12-24T06:06:46.677Z,100750.54
2018-12-24T06:07:22.538Z,100755.67
2018-12-24T06:07:58.819Z,100761.67
2018-12-24T06:08:34.736Z,100769.80
2018-12-24T06:09:10.624Z,100770.67
2018-12-24T06:09:46.800Z,100773.22
2018-12-24T06:10:22.935Z,100772.81
2018-12-24T06:10:59.181Z,100777.99
2018-12-24T06:11:35.103Z,100774.16
2018-12-24T06:12:11.249Z,100784.37
2018-12-24T06:12:47.077Z,100785.22
2018-12-24T06:13:22.914Z,100785.70
2018-12-24T06:13:58.964Z,100787.84
2018-12-24T06:14:35.191Z,100792.13
2018-12-24T06:15:11.134Z,100794.31
2018-12-24T06:15:46.972Z,100791.29
2018-12-24T06:16:22.828Z,100794.30
2018-12-24T06:16:58.977Z,100799.43
2018-12-24T06:17:34.848Z,100797.70
2018-12-24T06:18:11.044Z,100800.28
2018-12-24T06:18:46.890Z,100803.28
2018-12-24T06:19:23.137Z,100804.12
2018-12-24T06:19:59.383Z,100815.66
2018-12-24T06:20:37.770Z,100809.66
2018-12-24T06:21:12.948Z,100810.94
2018-12-24T06:21:48.790Z,100815.15
2018-12-24T06:22:24.669Z,100813.40
2018-12-24T06:23:00.583Z,100812.10
2018-12-24T06:23:36.450Z,100818.94
2018-12-24T06:24:12.310Z,100815.09
2018-12-24T06:24:48.149Z,100826.21
2018-12-24T06:25:24.340Z,100826.21
2018-12-24T06:26:00.477Z,100826.16
2018-12-24T06:26:36.314Z,100827.45
2018-12-24T06:27:12.457Z,100833.48
2018-12-24T06:27:48.322Z,100826.22
2018-12-24T06:28:24.175Z,100829.22
2018-12-24T06:29:00.380Z,100832.20
2018-12-24T06:29:36.230Z,100834.34
2018-12-24T06:30:12.079Z,100834.34
2018-12-24T06:30:48.165Z,100839.86
2018-12-24T06:31:24.089Z,100838.14
2018-12-24T06:32:00.407Z,100837.73
2018-12-24T06:32:36.334Z,100839.02
2018-12-24T06:33:12.831Z,100847.55
2018-12-24T06:33:48.996Z,100835.16
2018-12-24T06:34:24.856Z,100848.46
2018-12-24T06:35:00.815Z,100857.02
2018-12-24T06:35:36.955Z,100853.19
2018-12-24T06:36:12.819Z,100863.02
2018-12-24T06:36:48.762Z,100863.89
2018-12-24T06:37:24.773Z,100860.47
2018-12-24T06:38:01.077Z,100869.06
2018-12-24T06:38:36.994Z,100868.59
2018-12-24T06:39:12.827Z,100874.53
2018-12-24T06:39:48.663Z,100880.94
2018-12-24T06:40:24.534Z,100875.81
2018-12-24T06:41:00.411Z,100879.66
2018-12-24T06:41:36.658Z,100882.66
2018-12-24T06:42:12.508Z,100879.29
2018-12-24T06:42:48.399Z,100888.70
2018-12-24T06:43:24.235Z,100896.84
2018-12-24T06:44:06.734Z,100890.42
2018-12-24T06:44:37.822Z,100894.31
2018-12-24T06:45:13.661Z,100895.17
2018-12-24T06:45:49.623Z,100901.16
2018-12-24T06:46:25.472Z,100893.89
2018-12-24T06:47:01.773Z,100900.75
2018-12-24T06:47:38.246Z,100911.02
2018-12-24T06:48:14.092Z,100910.53
2018-12-24T06:48:49.927Z,100910.95
2018-12-24T06:49:26.165Z,100908.39
2018-12-24T06:50:02.442Z,100912.62
2018-12-24T06:50:38.310Z,100910.04
2018-12-24T06:51:14.415Z,100912.61
2018-12-24T06:51:50.279Z,100916.41
2018-12-24T06:52:26.170Z,100914.69
2018-12-24T06:53:02.072Z,100920.69
2018-12-24T06:53:38.308Z,100921.98